Bass Lake, Indiana
Current Conditions -  °F | °C
As of 3:55 AM on Friday 31 Oct 2014 (Local Time) from KOXI Reporting Station
Overcast Overcast  
Wind Chill: 39°   Ceiling: 5000
Heat Index: 44°   Visibility: 10mi
Dew Point: 37°   Wind: 8mph
Humidity: 76%   Direction: 270°W
Pressure: 29.97"   Gusts: NA
Location:  41.2954°N, 86.6039°W
Report Text: KOXI 310855Z AUTO 27007KT 10SM OVC050 07/03 A2997 RMK AO1 T00650026
Loading
Personal Weather Stations






























Interactive Weather Map
Tropical Storm Tracking
New forecast layout! Learn more

10-Day Weather Forecast

Advertisements
Track Severe Weather on mobile